Austin, TX (78710)

4:41 PM CST on December 10, 2016 (GMT -0600)
University Hills | | Change Station

Elev 604 ft 30.32 °N, 97.68 °W | Updated 28 seconds ago

Overcast
Overcast
53.1 °F
Feels Like 53.1 °F
N
0.0
Wind Variable Wind from SE
Gusts 0.0 mph

Today
High -- | Low -- °F
--% Chance of Precip.
Yesterday
High -- | Low -- °F
Precip. -- in
Pressure 30.30 in
Visibility 10.0 miles
Clouds Overcast 2100 ft
Dew Point 44 °F
Humidity 70%
Rainfall 0.00 in
Snow Depth Not available.
7:16 AM 5:30 PM
Waxing Gibbous, 87% visible
METAR KATT 102151Z AUTO VRB04KT 10SM OVC021 11/06 A3028 RMK AO2 SLP260 T01060056
Pressure 30.30 in
Visibility 10.0 miles
Clouds Overcast 2100 ft
Dew Point 44 °F
Humidity 70%
Rainfall 0.00 in
Snow Depth Not available.
7:16 AM 5:30 PM
Waxing Gibbous, 87% visible
METAR KATT 102151Z AUTO VRB04KT 10SM OVC021 11/06 A3028 RMK AO2 SLP260 T01060056

10-Day Weather Forecast

Almanac

Astronomy

Dec. 10, 2016 Rise Set
Actual Time
Civil Twilight
Nautical Twilight
Astronomical Twilight
Moon
Length of Visible Light
Length of Day
Tomorrow will be .
, % of the Moon is Illuminated

Today's Extremes

State Highs State Lows

Community

WunderPhotos

Upload Photos

1,956,671 photos uploaded!

WunderBlog® & News

Nearby

Air Quality

  Air Quality AQ Index Pollutant
Not available.

Snow Depth

Station Depth Elevation

Earthquake Activity

City Distance Mag. Time & Date
Minimum magnitude displayed is 2.5.

Coastal Water Temperatures

Place Temperature

Stations

Nearby Weather Stations

Station Location Temp. Windchill Dew Point Humidity Wind Precip. Elev Updated Type
                   

Watches & Warnings

There are currently no watches in effect.